Terminal Aerodrome Forecast
Issued by NWS Wilmington, NC

Home | Current Version | Previous Version | Text Only | Print | Product List | Glossary On
Versions: 1 2 3 4 5 6 7 8 9 10 11 12 13 14 15 16
000
FTUS42 KILM 062320
TAFFLO
TAF
KFLO 062320Z 0700/0724 07008KT P6SM BKN250
     FM070400 03006KT P6SM FEW060 BKN200
     FM071300 03012KT P6SM SCT045 BKN120
     FM071700 03015KT 4SM -RA VCSH BKN015 BKN040 OVC120=

USA.gov is the U.S. government's official web portal to all federal, state and local government web resources and services.